Jalalabad Airport
OAJL : now visible

Airfield :











YOU CAN JOIN US ON...

 
LOGIN :

Register | Disclaimer

   EN    FR    IT 

 









Legend :    VFR   Marginal VFR   IFR   Intensive IFR   Very Intensive IFR
Visi :
Ceiling :
>= 8 km
>= 3000ft
5 to 8 km
1000 to 3000 ft
1500m to 5 km
500 to 1000 ft
800 to 1500m
200 to 500 ft
< 800m
< 200 ft
Symbols :   Thunderstorms  Fog  Heavy snow  Heavy precipitations  Wind > 20 kt







- Airport Elevation : 1814 ft
- IATA code : JAA


OAJL - Jalalabad

CURRENT METAR :
  • 250455Z VRB01KT 9999 CLR 34/16 A2975 RMK AO2A SLP021 T03420162

EXPIRED METARs :
  • 250355Z VRB01KT 9000 HZ CLR 34/16 A2975 RMK AO2A SLP023 T03380158
  • 250255Z 00000KT 9000 HZ CLR 32/17 A2974 RMK AO2A SLP021 T03180167 52016

TAF TAF OAJL
Valid from the 25 at 00:00 until the 26 at 06:00 UTC


250000Z 2500/2606 VRB06KT 9999 FEW150 QNH2962INS
BECMG 2509/2510 11009KT 9999 SCT150 QNH2960INS
BECMG 2515/2516 VRB06KT 9999 FEW150 QNH2962INS
BECMG 2520/2521 VRB06KT 8000 HZ SCT180 QNH2966INS TX38/2511Z TN25/2501Z
No reported NOTAMs for that airfield.



MET'MAP, your aeronautical weather chart ! - Copyright ORBIFLY December 2007 - Disclaimer

ORBIFLY MET'MAP TEAM :

Programming & Development : Alexandra Zaïnal
Concept & Development : Baudouin d'Aumeries
Co-Development & Prog : Marc-Olivier Méhu
Technical & hardware support : Manuel Goepfert

Contact : metmap@orbifly.com




SOURCES & CREDITS :

   NOAA       Earth
Advisory